Alta, UT

9:01 AM MST on March 06, 2015 (GMT -0700)
Granite Hollow | Change Station
CLOSE
Current Station
Personal Weather Station
Location: Sandy, UT
Elevation: 5030 ft
Nearby Weather Stations

Elev 5030 ft 40.57 °N, 111.82 °W | Updated 12 seconds ago

Clear
Clear
41.0 °F
Feels Like 41 °F
N
0.0
Wind Variable Wind from WSW
Gusts 1.0 mph

Today
High -- | Low -- °F
--% Chance of Precip.
Yesterday
High -- | Low -- °F
Precip. -- in
6:53 AM 6:24 PM
Full, 99% visible
Pressure 30.47 in
Visibility 10.0 miles
Clouds Few 20000 ft
Windchill 41 °F
Dew Point 19 °F
Humidity 41%
Rainfall in
Snow Depth Not available.
UV 2 out of 12
Pollen 3.80 out of 12
Air Quality Not available.
Flu Activity Not available.
METAR KSLC 061553Z 14010KT 10SM FEW200 03/M04 A3046 RMK AO2 SLP318 T00281044

More Conditions Fewer Conditions

Pressure 30.47 in
Visibility 10.0 miles
Clouds Few 20000 ft
Windchill 41 °F
Dew Point 19 °F
Humidity 41%
Rainfall in
Snow Depth Not available.
UV 2 out of 12
Pollen 3.80 out of 12
Air Quality Not available.
Flu Activity Not available.
METAR KSLC 061553Z 14010KT 10SM FEW200 03/M04 A3046 RMK AO2 SLP318 T00281044

More Conditions Fewer Conditions

10-Day Weather Forecast

Almanac

Astronomy

Mar. 06, 2015 Rise Set
Actual Time
Civil Twilight
Nautical Twilight
Astronomical Twilight
Moon
Length of Visible Light
Length of Day
Tomorrow will be .
, % of the Moon is Illuminated

Today's Extremes

State Highs State Lows

Community

WunderPhotos

Upload Photos

1,803,327 photos uploaded!

WunderBlogs® & News

Nearby

Air Quality

  Air Quality AQ Index Pollutant
Not available.

Snow Depth

Station Depth Elevation

Earthquake Activity

City Distance Mag. Time & Date
Minimum magnitude displayed is 2.5.

Coastal Water Temperatures

Place Temperature

Nearby Weather Stations